Terminal Aerodrome Forecast
Issued by NWS

Home | Current Version | Previous Version | Text Only | Print | Product List | Glossary On
Versions: 1 2 3 4 5 6 7 8 9 10 11 12 13 14 15 16 17 18 19 20 21 22 23 24 25 26
962
FTUS46 KSEW 041125
TAFSEA
TAF
KSEA 041125Z 0412/0518 25010KT P6SM VCSH BKN011 OVC070
     FM041600 23013G20KT P6SM -SHRA OVC014
     FM042000 29011KT P6SM VCSH SCT018 BKN030 BKN050
     FM050200 18007KT P6SM SCT030 BKN080
     FM050800 16006KT P6SM -SHSN OVC015=

USA.gov is the U.S. government's official web portal to all federal, state and local government web resources and services.